Dades meteomassalio
Diari Summary for Gener 14, 2018 Units:  Metric    English   Both
« Previous Day
Next Day »
Diari Semanal Mensual Anual Personalitzat
  Maxima: Minima: Mijana:
Temperatura: 10.0 °C 1.7 °C 5.7 °C
Rosada: 5.6 °C -2.1 °C 2.6 °C
Humitat: 93 % 71 % 81 %
Velocitat del vent: 31.5 km/h 0.0 km/h 13.6 km/h
Racha vent: 31.5 km/h - -
Vent:- - NW
Pressio: 1025.3 hPa 1018.5 hPa -
Pluja: 0.3 mm    
Historical Graphs
 
 
Tabular Data for Gener 14, 2018
Time Temperature Dew Point Pressure Wind Wind Speed Wind Gust Humidity Rainfall Rate (Hourly) solar Conditions
00:05 4.4 °C 3.1 °C 1019.5 hPa West 5.6 km/h 5.6 km/h 91 % 0.3 mm 0.0 W/m2 RA
00:11 5.0 °C 3.7 °C 1019.5 hPa Calm     91 % 0.3 mm 0.0 W/m2 CLR
00:24 4.4 °C 3.1 °C 1019.5 hPa Calm     91 % 0.3 mm 0.0 W/m2 CLR
00:31 4.4 °C 3.1 °C 1019.5 hPa West 3.2 km/h 3.2 km/h 91 % 0.3 mm 0.0 W/m2 CLR
01:10 3.3 °C 2.0 °C 1018.8 hPa Calm     91 % 0.0 mm 0.0 W/m2 CLR
01:20 2.8 °C 1.4 °C 1018.8 hPa Calm     91 % 0.0 mm 0.0 W/m2 CLR
01:28 2.8 °C 1.6 °C 1018.8 hPa Calm     92 % 0.0 mm 0.0 W/m2 CLR
01:35 2.8 °C 1.6 °C 1018.8 hPa Calm     92 % 0.0 mm 0.0 W/m2 CLR
01:53 2.8 °C 1.6 °C 1018.8 hPa Calm     92 % 0.0 mm 0.0 W/m2 CLR
02:04 2.8 °C 1.6 °C 1018.5 hPa Calm     92 % 0.0 mm 0.0 W/m2 CLR
02:22 3.3 °C 2.2 °C 1018.5 hPa Calm     92 % 0.0 mm 0.0 W/m2 CLR
02:47 3.3 °C 2.2 °C 1018.5 hPa Calm     92 % 0.3 mm 0.0 W/m2
03:03 3.3 °C 2.3 °C 1018.8 hPa NNW 8.0 km/h 8.0 km/h 93 % 0.3 mm 0.0 W/m2 CLR
03:14 3.9 °C 2.7 °C 1019.2 hPa NW 18.5 km/h 18.5 km/h 92 % 0.3 mm 0.0 W/m2 CLR
03:24 5.0 °C 3.3 °C 1018.8 hPa NNW 7.4 km/h 7.4 km/h 89 % 0.3 mm 0.0 W/m2 CLR
03:30 5.0 °C 3.2 °C 1018.8 hPa NW 18.5 km/h 18.5 km/h 88 % 0.3 mm 0.0 W/m2 CLR
03:51 5.6 °C 3.6 °C 1019.2 hPa NW 16.7 km/h 16.7 km/h 87 % 0.0 mm 0.0 W/m2 CLR
03:58 5.6 °C 3.6 °C 1019.2 hPa NW 16.7 km/h 16.7 km/h 87 % 0.0 mm 0.0 W/m2 CLR
04:10 5.6 °C 3.6 °C 1019.2 hPa NW 9.3 km/h 9.3 km/h 87 % 0.0 mm 0.0 W/m2 CLR
04:18 5.6 °C 3.6 °C 1019.2 hPa NW 11.1 km/h 11.1 km/h 87 % 0.0 mm 0.0 W/m2 CLR
04:59 5.0 °C 3.2 °C 1019.2 hPa NNW 13.0 km/h 13.0 km/h 88 % 0.0 mm 0.0 W/m2 CLR
05:06 5.0 °C 3.2 °C 1019.2 hPa NW 14.5 km/h 14.5 km/h 88 % 0.0 mm 0.0 W/m2 CLR
05:15 5.0 °C 3.2 °C 1019.2 hPa NW 18.5 km/h 18.5 km/h 88 % 0.0 mm 0.0 W/m2 CLR
05:20 5.0 °C 3.2 °C 1019.2 hPa NW 16.7 km/h 16.7 km/h 88 % 0.0 mm 0.0 W/m2 CLR
05:26 5.0 °C 3.2 °C 1019.2 hPa NNW 18.5 km/h 18.5 km/h 88 % 0.0 mm 0.0 W/m2 CLR
05:59 5.0 °C 3.3 °C 1019.2 hPa NW 16.7 km/h 16.7 km/h 89 % 0.0 mm 0.0 W/m2 CLR
06:08 5.0 °C 3.3 °C 1019.2 hPa NW 13.0 km/h 13.0 km/h 89 % 0.0 mm 0.0 W/m2 CLR
06:13 5.0 °C 3.3 °C 1019.2 hPa NW 9.7 km/h 9.7 km/h 89 % 0.0 mm 0.0 W/m2 CLR
06:24 4.4 °C 2.9 °C 1019.2 hPa NW 13.0 km/h 13.0 km/h 90 % 0.0 mm 0.0 W/m2 CLR
06:32 4.4 °C 2.8 °C 1019.2 hPa NW 12.9 km/h 12.9 km/h 89 % 0.0 mm 0.0 W/m2 CLR
06:39 4.4 °C 2.9 °C 1019.2 hPa NW 14.8 km/h 14.8 km/h 90 % 0.0 mm 0.0 W/m2 CLR
06:47 4.4 °C 2.9 °C 1018.8 hPa NW 5.6 km/h 5.6 km/h 90 % 0.0 mm 0.0 W/m2 CLR
06:55 5.0 °C 3.3 °C 1018.8 hPa NW 14.8 km/h 14.8 km/h 89 % 0.0 mm 0.0 W/m2 CLR
07:05 5.0 °C 3.2 °C 1018.8 hPa NW 18.5 km/h 18.5 km/h 88 % 0.0 mm 0.0 W/m2 CLR
07:15 5.0 °C 3.0 °C 1018.8 hPa NNW 14.8 km/h 14.8 km/h 87 % 0.0 mm 0.0 W/m2 CLR
07:23 5.0 °C 3.0 °C 1018.8 hPa NW 14.8 km/h 14.8 km/h 87 % 0.0 mm 0.0 W/m2 CLR
07:31 5.0 °C 3.0 °C 1018.8 hPa NW 13.0 km/h 13.0 km/h 87 % 0.0 mm 0.0 W/m2 CLR
07:39 5.0 °C 3.0 °C 1018.8 hPa NW 11.1 km/h 11.1 km/h 87 % 0.0 mm 0.0 W/m2 CLR
07:55 5.0 °C 3.0 °C 1019.2 hPa NW 13.0 km/h 13.0 km/h 87 % 0.0 mm 0.0 W/m2 CLR
08:41 5.6 °C 3.1 °C 1019.2 hPa NW 16.7 km/h 16.7 km/h 84 % 0.0 mm 9.0 W/m2 BKN
08:47 5.6 °C 3.1 °C 1019.2 hPa NW 18.5 km/h 18.5 km/h 84 % 0.0 mm 9.0 W/m2 BKN
08:55 5.6 °C 3.1 °C 1019.2 hPa NW 16.1 km/h 16.1 km/h 84 % 0.0 mm 16.0 W/m2 BKN
09:03 5.6 °C 3.1 °C 1019.5 hPa NW 14.5 km/h 14.5 km/h 84 % 0.0 mm 16.0 W/m2 BKN
09:08 5.6 °C 3.1 °C 1019.5 hPa WNW 13.0 km/h 13.0 km/h 84 % 0.0 mm 28.0 W/m2 BKN
09:14 5.6 °C 2.9 °C 1019.5 hPa NW 18.5 km/h 18.5 km/h 83 % 0.0 mm 37.0 W/m2 BKN
09:39 5.6 °C 2.7 °C 1019.9 hPa NW 13.0 km/h 13.0 km/h 82 % 0.0 mm 42.0 W/m2 SCT
09:45 5.6 °C 2.7 °C 1019.9 hPa NW 16.7 km/h 16.7 km/h 82 % 0.0 mm 32.0 W/m2 BKN
10:23 6.1 °C 3.1 °C 1020.5 hPa NNW 16.7 km/h 16.7 km/h 81 % 0.0 mm 97.0 W/m2 CLR
10:28 6.7 °C 3.6 °C 1020.5 hPa NW 16.7 km/h 16.7 km/h 81 % 0.0 mm 91.0 W/m2 CLR
10:37 6.7 °C 3.4 °C 1020.5 hPa NW 14.8 km/h 14.8 km/h 80 % 0.0 mm 95.0 W/m2 CLR
10:44 6.7 °C 3.6 °C 1020.9 hPa Calm     81 % 0.0 mm 102.0 W/m2 CLR
11:04 7.2 °C 3.7 °C 1020.9 hPa NNW 3.2 km/h 3.2 km/h 78 % 0.0 mm 156.0 W/m2 CLR
11:20 7.8 °C 3.6 °C 1020.9 hPa WNW 18.5 km/h 18.5 km/h 75 % 0.0 mm 158.0 W/m2 CLR
11:25 7.8 °C 3.4 °C 1020.9 hPa WNW 29.6 km/h 29.6 km/h 74 % 0.0 mm 128.0 W/m2 CLR
11:32 7.8 °C 3.4 °C 1021.2 hPa WNW 18.5 km/h 18.5 km/h 74 % 0.0 mm 230.0 W/m2 CLR
11:48 8.3 °C 3.9 °C 1021.2 hPa NNW 20.4 km/h 20.4 km/h 74 % 0.0 mm 155.0 W/m2 CLR
12:01 8.9 °C 4.3 °C 1020.9 hPa NNW 22.2 km/h 22.2 km/h 73 % 0.0 mm 192.0 W/m2 CLR
12:28 9.4 °C 4.4 °C 1020.9 hPa NNW 29.6 km/h 29.6 km/h 71 % 0.0 mm 188.0 W/m2 CLR
12:40 9.4 °C 4.4 °C 1020.5 hPa NW 25.9 km/h 25.9 km/h 71 % 0.0 mm 257.0 W/m2 CLR
12:47 9.4 °C 4.4 °C 1020.9 hPa NNW 27.4 km/h 27.4 km/h 71 % 0.0 mm 167.0 W/m2 CLR
13:04 9.4 °C 4.7 °C 1020.5 hPa NW 22.2 km/h 22.2 km/h 72 % 0.0 mm 200.0 W/m2 CLR
13:16 8.9 °C 4.3 °C 1020.5 hPa NNW 31.5 km/h 31.5 km/h 73 % 0.0 mm 193.0 W/m2 CLR
13:31 9.4 °C 5.2 °C 1020.2 hPa North 29.6 km/h 29.6 km/h 75 % 0.0 mm 353.0 W/m2 CLR
13:41 10.0 °C 5.6 °C 1020.2 hPa North 25.9 km/h 25.9 km/h 74 % 0.0 mm 241.0 W/m2 CLR
13:54 8.9 °C 5.1 °C 1020.2 hPa NNW 27.8 km/h 27.8 km/h 77 % 0.0 mm 179.0 W/m2 CLR
14:04 8.9 °C 4.9 °C 1020.2 hPa NNW 22.2 km/h 22.2 km/h 76 % 0.0 mm 134.0 W/m2 CLR
15:00 9.4 °C 5.1 °C 1020.2 hPa NNW 29.6 km/h 29.6 km/h 74 % 0.0 mm 274.0 W/m2 CLR
15:07 9.4 °C 4.8 °C 1020.5 hPa NNW 29.6 km/h 29.6 km/h 73 % 0.0 mm 264.0 W/m2 CLR
15:29 9.4 °C 4.8 °C 1020.5 hPa North 24.1 km/h 24.1 km/h 73 % 0.0 mm 163.0 W/m2 CLR
15:37 8.9 °C 4.3 °C 1020.5 hPa NNW 31.5 km/h 31.5 km/h 73 % 0.0 mm 142.0 W/m2 CLR
15:46 8.9 °C 4.5 °C 1020.9 hPa North 31.5 km/h 31.5 km/h 74 % 0.0 mm 123.0 W/m2 CLR
15:53 8.3 °C 4.2 °C 1020.9 hPa NNW 18.5 km/h 18.5 km/h 75 % 0.0 mm 84.0 W/m2 CLR
15:58 8.3 °C 4.2 °C 1020.9 hPa North 19.3 km/h 19.3 km/h 75 % 0.0 mm 77.0 W/m2 CLR
16:08 8.3 °C 4.3 °C 1020.9 hPa NNW 22.2 km/h 22.2 km/h 76 % 0.0 mm 69.0 W/m2 FEW
16:14 8.3 °C 4.6 °C 1020.5 hPa North 18.5 km/h 18.5 km/h 77 % 0.0 mm 109.0 W/m2 FEW
16:32 8.3 °C 4.3 °C 1020.9 hPa NNW 27.8 km/h 27.8 km/h 76 % 0.0 mm 70.0 W/m2 CLR
16:40 8.3 °C 4.3 °C 1020.9 hPa NNW 19.3 km/h 19.3 km/h 76 % 0.0 mm 77.0 W/m2 FEW
16:56 8.3 °C 4.3 °C 1020.9 hPa NNW 16.7 km/h 16.7 km/h 76 % 0.0 mm 63.0 W/m2 SCT
17:14 8.3 °C 4.3 °C 1021.2 hPa NNW 16.1 km/h 16.1 km/h 76 % 0.0 mm 56.0 W/m2 SCT
17:25 7.8 °C 3.8 °C 1021.2 hPa North 16.7 km/h 16.7 km/h 76 % 0.0 mm 37.0 W/m2 BKN
17:45 7.8 °C 4.0 °C 1021.2 hPa NW 16.7 km/h 16.7 km/h 77 % 0.0 mm 14.0 W/m2 BKN
18:03 7.2 °C 3.3 °C 1021.6 hPa NW 14.8 km/h 14.8 km/h 76 % 0.0 mm 0.0 W/m2 CLR
18:08 7.2 °C 3.3 °C 1021.6 hPa NNW 16.7 km/h 16.7 km/h 76 % 0.0 mm 0.0 W/m2 CLR
18:31 6.7 °C 2.7 °C 1021.9 hPa Calm     76 % 0.0 mm 0.0 W/m2 CLR
18:39 6.7 °C 2.7 °C 1021.9 hPa Calm     76 % 0.0 mm 0.0 W/m2 CLR
18:44 6.7 °C 2.7 °C 1021.9 hPa NNW 3.7 km/h 3.7 km/h 76 % 0.0 mm 0.0 W/m2 CLR
18:51 6.7 °C 2.7 °C 1022.2 hPa NW 9.7 km/h 9.7 km/h 76 % 0.0 mm 0.0 W/m2 CLR
19:32 7.2 °C 3.1 °C 1022.6 hPa NW 13.0 km/h 13.0 km/h 75 % 0.0 mm 0.0 W/m2 CLR
19:49 7.2 °C 3.1 °C 1022.9 hPa WNW 13.0 km/h 13.0 km/h 75 % 0.0 mm 0.0 W/m2 CLR
19:56 7.2 °C 3.1 °C 1022.9 hPa NW 13.0 km/h 13.0 km/h 75 % 0.0 mm 0.0 W/m2 CLR
20:04 7.2 °C 3.1 °C 1022.9 hPa NW 14.8 km/h 14.8 km/h 75 % 0.0 mm 0.0 W/m2 CLR
20:11 6.7 °C 2.7 °C 1023.2 hPa West 11.1 km/h 11.1 km/h 76 % 0.0 mm 0.0 W/m2 CLR
20:16 6.7 °C 2.7 °C 1023.2 hPa WNW 9.7 km/h 9.7 km/h 76 % 0.0 mm 0.0 W/m2 CLR
20:22 6.7 °C 2.7 °C 1023.2 hPa WNW 9.3 km/h 9.3 km/h 76 % 0.0 mm 0.0 W/m2 CLR
20:38 6.1 °C 2.2 °C 1023.2 hPa WNW 12.9 km/h 12.9 km/h 76 % 0.0 mm 0.0 W/m2 CLR
20:50 5.6 °C 1.8 °C 1023.6 hPa WNW 13.0 km/h 13.0 km/h 77 % 0.0 mm 0.0 W/m2 CLR
20:56 5.6 °C 1.8 °C 1023.6 hPa WNW 13.0 km/h 13.0 km/h 77 % 0.0 mm 0.0 W/m2 CLR
21:05 5.0 °C 0.9 °C 1023.6 hPa WNW 13.0 km/h 13.0 km/h 75 % 0.0 mm 0.0 W/m2 CLR
21:17 4.4 °C 0.4 °C 1023.6 hPa NW 16.7 km/h 16.7 km/h 75 % 0.0 mm 0.0 W/m2 CLR
21:36 3.3 °C -0.9 °C 1023.9 hPa NW 14.8 km/h 14.8 km/h 74 % 0.0 mm 0.0 W/m2 CLR
21:42 3.3 °C -0.9 °C 1023.9 hPa WNW 14.8 km/h 14.8 km/h 74 % 0.0 mm 0.0 W/m2 CLR
22:02 2.8 °C -1.2 °C 1024.3 hPa Calm     75 % 0.0 mm 0.0 W/m2 CLR
22:07 2.2 °C -1.8 °C 1024.3 hPa Calm     75 % 0.0 mm 0.0 W/m2 CLR
22:17 2.2 °C -1.6 °C 1023.9 hPa Calm     76 % 0.0 mm 0.0 W/m2 CLR
22:28 1.7 °C -2.1 °C 1024.3 hPa WNW 3.7 km/h 3.7 km/h 76 % 0.0 mm 0.0 W/m2 CLR
22:45 1.7 °C -1.9 °C 1024.3 hPa NW 12.9 km/h 12.9 km/h 77 % 0.0 mm 0.0 W/m2 CLR
22:51 1.7 °C -1.9 °C 1024.6 hPa WNW 11.1 km/h 11.1 km/h 77 % 0.0 mm 0.0 W/m2 CLR
23:04 1.7 °C -1.9 °C 1024.6 hPa NW 3.2 km/h 3.2 km/h 77 % 0.0 mm 0.0 W/m2 CLR
23:10 1.7 °C -1.8 °C 1024.6 hPa WNW 14.8 km/h 14.8 km/h 78 % 0.0 mm 0.0 W/m2 CLR
23:16 2.2 °C -1.2 °C 1024.6 hPa WNW 7.4 km/h 7.4 km/h 78 % 0.0 mm 0.0 W/m2 CLR
23:23 2.2 °C -1.2 °C 1024.9 hPa WNW 5.6 km/h 5.6 km/h 78 % 0.0 mm 0.0 W/m2 CLR
23:29 2.2 °C -1.1 °C 1024.9 hPa West 9.3 km/h 9.3 km/h 79 % 0.0 mm 0.0 W/m2 CLR
23:38 2.2 °C -0.7 °C 1024.9 hPa West 11.1 km/h 11.1 km/h 81 % 0.0 mm 0.0 W/m2 CLR
23:53 2.2 °C -0.7 °C 1025.3 hPa WNW 8.0 km/h 8.0 km/h 81 % 0.0 mm 0.0 W/m2 CLR
23:59 1.7 °C -1.2 °C 1025.3 hPa West 5.6 km/h 5.6 km/h 81 % 0.0 mm 0.0 W/m2 CLR
Lo Temps de Massalio
Compliments of Weather Underground - 768 kb